Time;durP1;ratioP1;P1;durP2;ratioP2;P2;SDS_P1;SDS_P2;PMS_P1;PMS_P2;Temp;Humidity;BMP_temperature;BMP_pressure;BME280_temperature;BME280_humidity;BME280_pressure;Samples;Min_cycle;Max_cycle;Signal;HPM_P1;HPM_P2
2021/04/15 04:48:27;;;;;;;6.97;3.40;;;;;;;;;;6152990;23;20026;-77
2021/04/15 04:50:55;;;;;;;6.57;3.63;;;;;;;;;;6152760;23;20068;-76
2021/04/15 04:53:26;;;;;;;5.95;3.83;;;;;;;;;;6150682;23;20001;-77
2021/04/15 04:55:52;;;;;;;;;;;;;;;;;;6144110;23;20021;-78
2021/04/15 04:58:19;;;;;;;7.25;3.80;;;;;;;;;;6123442;23;20343;-77
2021/04/15 05:00:46;;;;;;;7.72;4.38;;;;;;;;;;6160384;22;20457;-83
2021/04/15 05:03:17;;;;;;;6.20;2.97;;;;;;;;;;6196321;23;20011;-84
2021/04/15 05:05:42;;;;;;;7.20;3.92;;;;;;;;;;6196403;23;20008;-84
2021/04/15 05:08:14;;;;;;;5.53;3.50;;;;;;;;;;6196149;23;20054;-83
2021/04/15 05:10:39;;;;;;;;;;;;;;;;;;6224162;23;20003;-84
2021/04/15 05:13:11;;;;;;;6.13;3.25;;;;;;;;;;6195247;23;19903;-83
2021/04/15 05:15:37;;;;;;;;;;;;;;;;;;6223508;23;20000;-84
2021/04/15 05:18:02;;;;;;;6.10;3.25;;;;;;;;;;6195795;23;20328;-84
2021/04/15 05:20:30;;;;;;;6.65;4.05;;;;;;;;;;6196037;23;20031;-84
2021/04/15 05:23:00;;;;;;;6.22;3.38;;;;;;;;;;6223825;23;20004;-84
2021/04/15 05:25:32;;;;;;;6.28;3.55;;;;;;;;;;6197035;23;20008;-83
2021/04/15 05:27:57;;;;;;;;;;;;;;;;;;6198473;23;20009;-83
2021/04/15 05:30:29;;;;;;;6.40;3.47;;;;;;;;;;6197706;23;19914;-83
2021/04/15 05:32:58;;;;;;;7.05;3.75;;;;;;;;;;6197789;23;20062;-84
2021/04/15 05:35:26;;;;;;;6.60;4.45;;;;;;;;;;6225364;23;20012;-84
2021/04/15 05:37:53;;;;;;;5.90;4.05;;;;;;;;;;6198751;23;20014;-84
2021/04/15 05:40:19;;;;;;;6.45;3.58;;;;;;;;;;6198407;23;20016;-84
2021/04/15 05:42:48;;;;;;;8.30;4.00;;;;;;;;;;6198826;23;20004;-84
2021/04/15 05:45:22;;;;;;;7.43;4.18;;;;;;;;;;6200159;23;20008;-84
2021/04/15 05:50:11;;;;;;;6.72;4.55;;;;;;;;;;5107515;27;20376;-85
2021/04/15 05:52:40;;;;;;;12.75;7.72;;;;;;;;;;5097628;28;20044;-86
2021/04/15 05:55:09;;;;;;;44.13;26.55;;;;;;;;;;5080111;28;20040;-86
2021/04/15 05:57:40;;;;;;;99.35;57.42;;;;;;;;;;5086871;28;20028;-86
2021/04/15 06:00:06;;;;;;;50.03;33.95;;;;;;;;;;5080390;28;20053;-85
2021/04/15 06:02:42;;;;;;;33.38;22.98;;;;;;;;;;5088682;28;20416;-85
2021/04/15 06:05:26;;;;;;;57.38;40.63;;;;;;;;;;5081894;28;20020;-86
2021/04/15 06:07:53;;;;;;;39.63;27.85;;;;;;;;;;5082324;28;20016;-85
2021/04/15 06:10:23;;;;;;;46.15;36.35;;;;;;;;;;5104161;28;20024;-85
2021/04/15 06:12:50;;;;;;;23.58;17.60;;;;;;;;;;5106032;28;20023;-85
2021/04/15 06:15:25;;;;;;;23.42;16.42;;;;;;;;;;5111503;28;20479;-85
2021/04/15 06:17:56;;;;;;;16.92;11.98;;;;;;;;;;5105535;28;20016;-84
2021/04/15 06:20:27;;;;;;;23.55;16.73;;;;;;;;;;5087174;28;20498;-85
2021/04/15 06:22:56;;;;;;;16.00;9.75;;;;;;;;;;5090421;28;20019;-85
2021/04/15 06:25:30;;;;;;;18.88;12.70;;;;;;;;;;5099746;28;20384;-85
2021/04/15 06:28:00;;;;;;;11.63;8.32;;;;;;;;;;5091161;28;20012;-85
2021/04/15 06:30:52;;;;;;;16.55;10.93;;;;;;;;;;5084914;28;20032;-85
2021/04/15 06:33:19;;;;;;;14.27;9.38;;;;;;;;;;5061117;28;20028;-86
2021/04/15 06:35:45;;;;;;;16.50;9.25;;;;;;;;;;5074028;28;20554;-85
2021/04/15 06:38:11;;;;;;;11.82;7.90;;;;;;;;;;5087371;28;20471;-85
2021/04/15 06:40:55;;;;;;;10.18;5.85;;;;;;;;;;5085542;28;20016;-85
2021/04/15 06:43:45;;;;;;;7.95;5.43;;;;;;;;;;5068913;28;20024;-86
2021/04/15 06:49:08;;;;;;;9.98;5.10;;;;;;;;;;5126389;27;20354;-86
2021/04/15 06:51:53;;;;;;;23.65;7.13;;;;;;;;;;5052967;28;20033;-85
2021/04/15 06:54:38;;;;;;;9.85;5.13;;;;;;;;;;5059990;28;20120;-85
2021/04/15 06:57:12;;;;;;;12.32;6.20;;;;;;;;;;5098659;28;20043;-85
2021/04/15 06:59:50;;;;;;;13.02;5.80;;;;;;;;;;5119835;28;20027;-85
2021/04/15 07:02:16;;;;;;;9.88;6.07;;;;;;;;;;5113461;28;20081;-86
2021/04/15 07:04:53;;;;;;;8.95;5.28;;;;;;;;;;5115946;28;20479;-86
2021/04/15 07:07:23;;;;;;;8.32;5.32;;;;;;;;;;5127753;28;20631;-85
2021/04/15 07:09:48;;;;;;;8.02;5.18;;;;;;;;;;5108965;28;20031;-85
2021/04/15 07:12:33;;;;;;;8.85;5.10;;;;;;;;;;5128431;28;20033;-85
2021/04/15 07:15:17;;;;;;;16.33;6.90;;;;;;;;;;5122734;28;20051;-86
2021/04/15 07:18:07;;;;;;;9.23;3.97;;;;;;;;;;5113154;28;20039;-86
2021/04/15 07:20:40;;;;;;;7.75;4.10;;;;;;;;;;5121594;28;20058;-85
2021/04/15 07:23:06;;;;;;;8.43;4.20;;;;;;;;;;5117055;28;20026;-84
2021/04/15 07:25:48;;;;;;;10.57;4.40;;;;;;;;;;5121310;28;20024;-85
2021/04/15 07:28:22;;;;;;;6.43;3.78;;;;;;;;;;5117541;28;20015;-85
2021/04/15 07:31:16;;;;;;;7.57;3.20;;;;;;;;;;5120642;28;20024;-87
2021/04/15 07:33:51;;;;;;;8.73;3.25;;;;;;;;;;5126614;28;20027;-86
2021/04/15 07:36:27;;;;;;;8.32;3.40;;;;;;;;;;5120771;28;20011;-86
2021/04/15 07:38:56;;;;;;;5.72;3.60;;;;;;;;;;5117167;28;20023;-86
2021/04/15 07:41:27;;;;;;;6.63;3.47;;;;;;;;;;5118120;27;20436;-85
2021/04/15 07:43:59;;;;;;;6.35;3.50;;;;;;;;;;5120672;28;20415;-86
2021/04/15 07:46:28;;;;;;;5.85;3.40;;;;;;;;;;5112704;28;20115;-86
2021/04/15 07:49:06;;;;;;;6.40;3.33;;;;;;;;;;5123364;28;20023;-85
2021/04/15 07:51:38;;;;;;;5.60;3.55;;;;;;;;;;5120530;27;20045;-86
2021/04/15 07:54:19;;;;;;;5.43;3.40;;;;;;;;;;5113625;28;20026;-86
2021/04/15 07:56:57;;;;;;;8.60;3.47;;;;;;;;;;5110658;28;20480;-86
2021/04/15 07:59:44;;;;;;;10.27;3.60;;;;;;;;;;5113644;28;20403;-85
2021/04/15 08:04:37;;;;;;;4.85;2.75;;;;;;;;;;5118884;27;20894;-85
2021/04/15 08:07:03;;;;;;;7.32;2.88;;;;;;;;;;5107192;28;20028;-86
2021/04/15 08:09:35;;;;;;;5.70;2.90;;;;;;;;;;5109437;28;20027;-86
2021/04/15 08:12:00;;;;;;;4.47;2.72;;;;;;;;;;5103375;28;20012;-86
2021/04/15 08:14:48;;;;;;;6.40;3.42;;;;;;;;;;5104486;28;20012;-86
2021/04/15 08:17:32;;;;;;;5.97;3.10;;;;;;;;;;5094968;28;20020;-85
2021/04/15 08:20:14;;;;;;;7.18;2.70;;;;;;;;;;5098066;28;20016;-86
2021/04/15 08:22:57;;;;;;;6.15;2.40;;;;;;;;;;5102204;28;20013;-87
2021/04/15 08:25:42;;;;;;;7.78;3.08;;;;;;;;;;5085047;28;20032;-86
2021/04/15 08:28:13;;;;;;;4.32;2.80;;;;;;;;;;5091730;28;20008;-86
2021/04/15 08:30:39;;;;;;;;;;;;;;;;;;5097839;28;20546;-86
2021/04/15 08:33:10;;;;;;;5.47;2.38;;;;;;;;;;5103658;28;19908;-86
2021/04/15 08:35:36;;;;;;;;;;;;;;;;;;5093963;28;20064;-85
2021/04/15 08:38:19;;;;;;;7.88;2.75;;;;;;;;;;5095706;28;20456;-86
2021/04/15 08:40:58;;;;;;;5.85;2.67;;;;;;;;;;5105790;28;20115;-86
2021/04/15 08:43:37;;;;;;;4.13;2.33;;;;;;;;;;5102126;28;20376;-85
2021/04/15 08:46:22;;;;;;;7.93;2.28;;;;;;;;;;5094722;28;20027;-87
2021/04/15 08:49:09;;;;;;;11.48;3.53;;;;;;;;;;5102363;28;20100;-86
2021/04/15 08:51:34;;;;;;;5.63;2.90;;;;;;;;;;5104984;28;20023;-85
2021/04/15 08:54:06;;;;;;;7.38;3.50;;;;;;;;;;5100454;28;20078;-86
2021/04/15 08:56:35;;;;;;;6.35;2.33;;;;;;;;;;5098610;28;20041;-85
2021/04/15 08:59:07;;;;;;;5.13;2.25;;;;;;;;;;5105129;28;20186;-85
2021/04/15 09:01:51;;;;;;;5.82;2.25;;;;;;;;;;5101327;28;20024;-85
2021/04/15 09:04:36;;;;;;;5.93;2.97;;;;;;;;;;5107195;27;20028;-86
2021/04/15 09:07:05;;;;;;;8.88;2.47;;;;;;;;;;5108610;28;20134;-86
2021/04/15 09:09:39;;;;;;;4.38;2.17;;;;;;;;;;5105660;28;20110;-85
2021/04/15 09:12:16;;;;;;;6.10;2.25;;;;;;;;;;5095583;28;20028;-86
2021/04/15 09:14:42;;;;;;;4.32;1.67;;;;;;;;;;5091969;28;20020;-85
2021/04/15 09:17:31;;;;;;;5.15;2.42;;;;;;;;;;5097194;28;20030;-85
2021/04/15 09:22:19;;;;;;;5.72;2.55;;;;;;;;;;5127695;27;20841;-86
2021/04/15 09:24:47;;;;;;;5.60;2.45;;;;;;;;;;5102644;28;20094;-85
2021/04/15 09:27:28;;;;;;;5.03;2.70;;;;;;;;;;5100703;28;20027;-85
2021/04/15 09:29:57;;;;;;;4.07;2.22;;;;;;;;;;5108628;28;20027;-86
2021/04/15 09:32:42;;;;;;;4.15;2.35;;;;;;;;;;5103625;28;20023;-85
2021/04/15 09:35:10;;;;;;;7.38;2.10;;;;;;;;;;5103302;28;20028;-86
2021/04/15 09:37:45;;;;;;;3.53;2.05;;;;;;;;;;5105733;28;20023;-87
2021/04/15 09:40:19;;;;;;;3.80;2.47;;;;;;;;;;5097352;28;20047;-85
2021/04/15 09:42:57;;;;;;;5.05;2.13;;;;;;;;;;5093210;28;20074;-86
2021/04/15 09:45:34;;;;;;;4.65;1.80;;;;;;;;;;5113419;28;20048;-85
2021/04/15 09:48:12;;;;;;;5.60;2.28;;;;;;;;;;5100009;28;20085;-85
2021/04/15 09:50:42;;;;;;;5.63;2.45;;;;;;;;;;5110227;28;20400;-85
2021/04/15 09:53:08;;;;;;;7.57;3.63;;;;;;;;;;5103039;28;20632;-85
2021/04/15 09:55:53;;;;;;;5.90;2.22;;;;;;;;;;5105040;28;20031;-85
2021/04/15 09:58:30;;;;;;;5.97;2.25;;;;;;;;;;5101477;28;20024;-85
2021/04/15 10:01:01;;;;;;;4.18;2.10;;;;;;;;;;5103462;28;20020;-85
2021/04/15 10:03:34;;;;;;;5.47;2.67;;;;;;;;;;5097648;28;20027;-85
2021/04/15 10:06:03;;;;;;;4.28;2.20;;;;;;;;;;5106710;28;20024;-85
2021/04/15 10:08:37;;;;;;;6.18;2.50;;;;;;;;;;5098378;28;20020;-85
2021/04/15 10:11:14;;;;;;;4.50;2.45;;;;;;;;;;5107324;28;20024;-86
2021/04/15 10:13:57;;;;;;;5.40;2.25;;;;;;;;;;5098558;28;20028;-86
2021/04/15 10:16:36;;;;;;;5.00;2.40;;;;;;;;;;5103884;28;20039;-85
2021/04/15 10:19:14;;;;;;;5.72;3.10;;;;;;;;;;5100521;28;20373;-86
2021/04/15 10:21:59;;;;;;;4.45;2.25;;;;;;;;;;5105183;28;20028;-85
2021/04/15 10:24:29;;;;;;;5.90;2.63;;;;;;;;;;5105359;28;20024;-85
2021/04/15 10:26:58;;;;;;;4.77;2.50;;;;;;;;;;5101868;28;20016;-85
2021/04/15 10:29:26;;;;;;;8.07;2.35;;;;;;;;;;5101144;28;20254;-86
2021/04/15 10:31:58;;;;;;;6.10;3.00;;;;;;;;;;5096373;28;20051;-85
2021/04/15 10:34:43;;;;;;;5.35;2.42;;;;;;;;;;5083941;28;20507;-85
2021/04/15 10:37:21;;;;;;;4.85;2.00;;;;;;;;;;5092570;28;20031;-85
2021/04/15 10:42:24;;;;;;;6.38;2.75;;;;;;;;;;5123246;27;21409;-85
2021/04/15 10:45:09;;;;;;;5.43;2.08;;;;;;;;;;5118878;28;20408;-87
2021/04/15 10:47:43;;;;;;;4.90;2.40;;;;;;;;;;5092403;28;20396;-85
2021/04/15 10:50:15;;;;;;;5.03;2.53;;;;;;;;;;5094573;28;20364;-85
2021/04/15 10:52:41;;;;;;;5.72;2.40;;;;;;;;;;5098427;28;20414;-85
2021/04/15 10:55:16;;;;;;;4.43;2.38;;;;;;;;;;5103136;28;20020;-86
2021/04/15 10:57:41;;;;;;;3.15;2.00;;;;;;;;;;5093975;28;20032;-86
2021/04/15 11:00:25;;;;;;;3.38;2.10;;;;;;;;;;5119761;28;20038;-85
2021/04/15 11:02:53;;;;;;;4.53;2.03;;;;;;;;;;5103441;28;20111;-86
2021/04/15 11:05:21;;;;;;;4.47;2.50;;;;;;;;;;5102985;28;20032;-85
2021/04/15 11:07:48;;;;;;;4.55;2.10;;;;;;;;;;5101140;28;20017;-85
2021/04/15 11:10:22;;;;;;;4.50;2.08;;;;;;;;;;5097502;28;20028;-86
2021/04/15 11:12:48;;;;;;;4.47;2.67;;;;;;;;;;5102805;28;20031;-84
2021/04/15 11:15:23;;;;;;;4.35;2.65;;;;;;;;;;5099088;28;20016;-85
2021/04/15 11:17:53;;;;;;;4.28;2.33;;;;;;;;;;5088835;28;20435;-86
2021/04/15 11:20:27;;;;;;;4.70;1.98;;;;;;;;;;5087839;28;20647;-85
2021/04/15 11:23:01;;;;;;;3.15;1.85;;;;;;;;;;5084514;28;20024;-85
2021/04/15 11:25:27;;;;;;;3.50;1.90;;;;;;;;;;5084355;28;20024;-87
2021/04/15 11:27:53;;;;;;;3.00;1.80;;;;;;;;;;5087523;28;20085;-85
2021/04/15 11:30:31;;;;;;;3.33;2.08;;;;;;;;;;5087675;28;20016;-85
2021/04/15 11:32:57;;;;;;;7.18;2.80;;;;;;;;;;5095697;28;20055;-85
2021/04/15 11:35:23;;;;;;;7.15;2.95;;;;;;;;;;5085139;28;20389;-85
2021/04/15 11:37:50;;;;;;;3.72;2.05;;;;;;;;;;5090764;28;20027;-85
2021/04/15 11:40:18;;;;;;;4.38;2.20;;;;;;;;;;5079581;28;20016;-85
2021/04/15 11:42:44;;;;;;;5.78;2.05;;;;;;;;;;5081358;28;20025;-85
2021/04/15 11:45:10;;;;;;;3.85;1.95;;;;;;;;;;5089509;28;20526;-87
2021/04/15 11:47:37;;;;;;;5.45;1.83;;;;;;;;;;5087547;28;20050;-85
2021/04/15 11:50:13;;;;;;;5.60;2.20;;;;;;;;;;5089614;28;20024;-85
2021/04/15 11:52:41;;;;;;;4.38;2.05;;;;;;;;;;5073519;28;20032;-86
2021/04/15 11:55:24;;;;;;;5.38;1.92;;;;;;;;;;5073681;28;20100;-85
2021/04/15 11:58:04;;;;;;;4.75;2.17;;;;;;;;;;5073901;28;20028;-85
2021/04/15 12:00:32;;;;;;;3.30;2.33;;;;;;;;;;5071890;28;20066;-85
2021/04/15 12:02:58;;;;;;;4.10;2.30;;;;;;;;;;5069500;28;20322;-84
2021/04/15 12:05:31;;;;;;;3.75;2.25;;;;;;;;;;5074633;28;20485;-84
2021/04/15 12:08:13;;;;;;;9.30;2.28;;;;;;;;;;5081119;28;20017;-84
2021/04/15 12:10:42;;;;;;;4.65;2.35;;;;;;;;;;5071325;28;20496;-84
2021/04/15 12:13:12;;;;;;;3.63;1.75;;;;;;;;;;5072125;28;20032;-85
2021/04/15 12:15:41;;;;;;;4.33;1.83;;;;;;;;;;5071568;28;20078;-83
2021/04/15 12:18:13;;;;;;;3.05;1.85;;;;;;;;;;5082037;28;20257;-84
2021/04/15 12:20:45;;;;;;;3.58;2.33;;;;;;;;;;5074076;28;20069;-85
2021/04/15 12:23:20;;;;;;;3.40;1.92;;;;;;;;;;5072490;28;20028;-84
2021/04/15 12:25:54;;;;;;;6.68;2.13;;;;;;;;;;5066440;28;20042;-84
2021/04/15 12:28:20;;;;;;;4.75;1.95;;;;;;;;;;5075463;28;20019;-84
2021/04/15 12:30:47;;;;;;;4.25;2.00;;;;;;;;;;5078049;28;20027;-84
2021/04/15 12:33:27;;;;;;;3.60;2.10;;;;;;;;;;5078489;28;20024;-84
2021/04/15 12:36:01;;;;;;;2.92;1.90;;;;;;;;;;5080769;28;20031;-85
2021/04/15 12:38:29;;;;;;;3.63;1.73;;;;;;;;;;5074597;28;20040;-84
2021/04/15 12:40:57;;;;;;;3.78;2.13;;;;;;;;;;5076718;28;20028;-85
2021/04/15 12:43:27;;;;;;;3.80;2.22;;;;;;;;;;5074013;28;20027;-85
2021/04/15 12:46:02;;;;;;;3.72;2.13;;;;;;;;;;5071084;28;20016;-84
2021/04/15 12:48:43;;;;;;;5.15;2.38;;;;;;;;;;5067343;28;20473;-84
2021/04/15 12:51:11;;;;;;;4.90;2.40;;;;;;;;;;5076856;28;20035;-84
2021/04/15 12:53:38;;;;;;;11.10;7.43;;;;;;;;;;5069482;28;20035;-85
2021/04/15 12:56:05;;;;;;;12.00;5.68;;;;;;;;;;5069667;28;20023;-84
2021/04/15 12:58:30;;;;;;;5.57;3.13;;;;;;;;;;5071981;28;20100;-85
2021/04/15 13:00:57;;;;;;;3.70;2.17;;;;;;;;;;5074159;28;20085;-85
2021/04/15 13:03:22;;;;;;;23.35;13.50;;;;;;;;;;5066099;28;20023;-84
2021/04/15 13:05:54;;;;;;;23.33;15.27;;;;;;;;;;5081788;28;20025;-85
2021/04/15 13:08:19;;;;;;;;;;;;;;;;;;5088381;28;20011;-85
2021/04/15 13:10:45;;;;;;;15.38;9.35;;;;;;;;;;5088608;28;19897;-85
2021/04/15 13:13:34;;;;;;;7.78;4.13;;;;;;;;;;5079901;28;20068;-84
2021/04/15 13:15:59;;;;;;;6.57;4.38;;;;;;;;;;5071938;28;20036;-85
2021/04/15 13:18:37;;;;;;;7.45;5.93;;;;;;;;;;5066747;28;20029;-85
2021/04/15 13:21:11;;;;;;;7.80;6.72;;;;;;;;;;5075411;28;20020;-85
2021/04/15 13:23:40;;;;;;;4.53;3.15;;;;;;;;;;5074074;28;20082;-85
2021/04/15 13:26:05;;;;;;;6.75;2.83;;;;;;;;;;5073590;28;20020;-84
2021/04/15 13:28:40;;;;;;;6.07;3.58;;;;;;;;;;5080344;28;20047;-85
2021/04/15 13:31:06;;;;;;;6.32;4.75;;;;;;;;;;5092862;28;20029;-85
2021/04/15 13:33:31;;;;;;;5.22;4.13;;;;;;;;;;5089833;28;20081;-85
2021/04/15 13:36:03;;;;;;;4.57;3.15;;;;;;;;;;5089163;28;20025;-84
2021/04/15 13:40:52;;;;;;;5.32;3.17;;;;;;;;;;5111884;27;20352;-85
2021/04/15 13:43:33;;;;;;;5.38;2.88;;;;;;;;;;5093321;28;20058;-85
2021/04/15 13:46:18;;;;;;;4.90;2.47;;;;;;;;;;5094675;28;20024;-85
2021/04/15 13:48:49;;;;;;;5.10;2.58;;;;;;;;;;5094895;28;20051;-84
2021/04/15 13:51:20;;;;;;;6.50;4.47;;;;;;;;;;5094401;28;20028;-85
2021/04/15 13:53:46;;;;;;;7.03;3.50;;;;;;;;;;5093063;28;20039;-85
2021/04/15 13:56:25;;;;;;;7.72;4.32;;;;;;;;;;5093153;28;20036;-85
2021/04/15 13:58:51;;;;;;;4.03;2.50;;;;;;;;;;5087111;28;20412;-84
2021/04/15 14:01:46;;;;;;;4.13;2.70;;;;;;;;;;5087086;28;20020;-84
2021/04/15 14:04:30;;;;;;;4.25;2.40;;;;;;;;;;5064486;28;20052;-84
2021/04/15 14:07:15;;;;;;;4.18;2.67;;;;;;;;;;5088060;28;20568;-84
2021/04/15 14:09:41;;;;;;;5.88;2.67;;;;;;;;;;5087497;28;20032;-84
2021/04/15 14:12:25;;;;;;;4.60;2.20;;;;;;;;;;5090173;28;20384;-84
2021/04/15 14:14:54;;;;;;;5.35;3.00;;;;;;;;;;5092988;28;20033;-83
2021/04/15 14:17:22;;;;;;;4.75;2.85;;;;;;;;;;5094517;28;20081;-84
2021/04/15 14:19:48;;;;;;;5.78;3.10;;;;;;;;;;5088519;28;20042;-82
2021/04/15 14:22:19;;;;;;;4.88;2.78;;;;;;;;;;5091299;28;20020;-84
2021/04/15 14:24:48;;;;;;;5.82;3.17;;;;;;;;;;5096176;28;20476;-84
2021/04/15 14:27:20;;;;;;;5.80;2.95;;;;;;;;;;5093815;28;20051;-84
2021/04/15 14:29:47;;;;;;;5.05;3.00;;;;;;;;;;5094567;28;20480;-83
2021/04/15 14:32:16;;;;;;;5.15;3.10;;;;;;;;;;5088848;28;20023;-84
2021/04/15 14:34:49;;;;;;;5.22;2.58;;;;;;;;;;5089964;28;20100;-84
2021/04/15 14:37:20;;;;;;;4.82;2.90;;;;;;;;;;5089885;28;20028;-84
2021/04/15 14:39:48;;;;;;;5.43;3.03;;;;;;;;;;5101538;28;20075;-84
2021/04/15 14:42:16;;;;;;;4.90;2.85;;;;;;;;;;5091834;28;20017;-84
2021/04/15 14:44:42;;;;;;;4.63;3.05;;;;;;;;;;5088086;28;20484;-84
2021/04/15 14:47:15;;;;;;;5.68;3.40;;;;;;;;;;5089760;28;20017;-84
2021/04/15 14:49:41;;;;;;;6.28;3.53;;;;;;;;;;5087389;28;20028;-84
2021/04/15 14:52:09;;;;;;;6.43;3.75;;;;;;;;;;5083629;28;20525;-84
2021/04/15 14:54:35;;;;;;;5.63;3.45;;;;;;;;;;5080071;28;20016;-84
2021/04/15 14:57:01;;;;;;;5.28;3.15;;;;;;;;;;5080684;28;20035;-84
2021/04/15 14:59:53;;;;;;;9.18;3.80;;;;;;;;;;5079496;28;20016;-84
2021/04/15 15:02:21;;;;;;;7.07;3.90;;;;;;;;;;5060118;28;20086;-84
2021/04/15 15:04:55;;;;;;;6.32;3.17;;;;;;;;;;5073951;28;20019;-83
2021/04/15 15:07:20;;;;;;;4.32;2.88;;;;;;;;;;5072419;28;20024;-82
2021/04/15 15:09:46;;;;;;;7.15;2.95;;;;;;;;;;5074846;28;20075;-85
2021/04/15 15:12:14;;;;;;;4.35;2.10;;;;;;;;;;5072832;28;20025;-85
2021/04/15 15:14:44;;;;;;;6.45;2.47;;;;;;;;;;5067817;28;20033;-88
2021/04/15 15:17:15;;;;;;;4.35;2.83;;;;;;;;;;5070780;28;20031;-85
2021/04/15 15:19:41;;;;;;;4.35;2.42;;;;;;;;;;5070443;28;20162;-85
2021/04/15 15:22:10;;;;;;;7.53;3.00;;;;;;;;;;5066512;28;20044;-85
2021/04/15 15:24:45;;;;;;;4.80;2.50;;;;;;;;;;5068745;28;20436;-85
2021/04/15 15:27:17;;;;;;;5.43;2.50;;;;;;;;;;5068394;28;20044;-85
2021/04/15 15:29:43;;;;;;;4.57;2.35;;;;;;;;;;5086902;28;20055;-86
2021/04/15 15:32:15;;;;;;;4.97;2.28;;;;;;;;;;5072730;28;20439;-85
2021/04/15 15:34:43;;;;;;;5.38;2.08;;;;;;;;;;5090994;28;20036;-86
2021/04/15 15:37:17;;;;;;;5.97;2.60;;;;;;;;;;5077290;28;20094;-85
2021/04/15 15:39:43;;;;;;;6.97;2.60;;;;;;;;;;5078897;28;20021;-85
2021/04/15 15:42:10;;;;;;;4.28;2.35;;;;;;;;;;5078437;28;20052;-85
2021/04/15 15:44:36;;;;;;;10.75;3.08;;;;;;;;;;5077779;28;20020;-85
2021/04/15 15:47:03;;;;;;;3.78;2.10;;;;;;;;;;5091705;28;20021;-85
2021/04/15 15:49:31;;;;;;;4.47;2.65;;;;;;;;;;5083137;28;20078;-85
2021/04/15 15:51:58;;;;;;;6.30;2.80;;;;;;;;;;5076933;28;20048;-86
2021/04/15 15:54:49;;;;;;;3.47;2.13;;;;;;;;;;5067594;28;20072;-85
2021/04/15 15:57:21;;;;;;;4.55;2.80;;;;;;;;;;5068049;28;20113;-85
2021/04/15 15:59:48;;;;;;;4.90;2.28;;;;;;;;;;5067997;28;20403;-85
2021/04/15 16:02:17;;;;;;;4.38;2.03;;;;;;;;;;5092439;28;20346;-86
2021/04/15 16:05:03;;;;;;;6.75;2.30;;;;;;;;;;5074383;28;20028;-85
2021/04/15 16:07:32;;;;;;;6.63;3.58;;;;;;;;;;5075067;28;20548;-85
2021/04/15 16:09:58;;;;;;;4.50;2.17;;;;;;;;;;5080750;28;20052;-85
2021/04/15 16:12:41;;;;;;;4.25;2.55;;;;;;;;;;5079622;28;20089;-86
2021/04/15 16:15:19;;;;;;;5.22;1.92;;;;;;;;;;5080963;28;20024;-85
2021/04/15 16:17:46;;;;;;;6.43;2.35;;;;;;;;;;5077818;28;20085;-87
2021/04/15 16:20:12;;;;;;;5.15;2.28;;;;;;;;;;5077743;28;20246;-85
2021/04/15 16:22:38;;;;;;;4.30;2.28;;;;;;;;;;5082298;28;20031;-85
2021/04/15 16:25:03;;;;;;;4.40;2.60;;;;;;;;;;5074909;28;20028;-85
2021/04/15 16:27:29;;;;;;;4.22;2.03;;;;;;;;;;5069079;28;20059;-85
2021/04/15 16:29:55;;;;;;;12.18;6.15;;;;;;;;;;5075867;28;20143;-85
2021/04/15 16:32:20;;;;;;;13.30;5.93;;;;;;;;;;5079890;28;20032;-85
2021/04/15 16:34:47;;;;;;;7.38;2.22;;;;;;;;;;5078422;28;20492;-85
2021/04/15 16:37:21;;;;;;;18.38;9.38;;;;;;;;;;5082437;28;20046;-84
2021/04/15 16:39:47;;;;;;;4.75;2.80;;;;;;;;;;5082319;28;20023;-87
2021/04/15 16:42:23;;;;;;;10.13;4.57;;;;;;;;;;5078754;28;20074;-85
2021/04/15 16:44:49;;;;;;;4.25;2.65;;;;;;;;;;5079093;28;20080;-87
2021/04/15 16:47:14;;;;;;;14.25;6.22;;;;;;;;;;5071468;28;20494;-85
2021/04/15 16:49:40;;;;;;;9.68;3.50;;;;;;;;;;5080140;28;20445;-85
2021/04/15 16:52:06;;;;;;;7.35;2.60;;;;;;;;;;5078386;28;20374;-85
2021/04/15 16:54:33;;;;;;;3.85;2.03;;;;;;;;;;5073792;28;20078;-85
2021/04/15 16:56:58;;;;;;;8.95;3.67;;;;;;;;;;5070063;28;20025;-85
2021/04/15 16:59:25;;;;;;;8.27;3.42;;;;;;;;;;5071425;28;20620;-85
2021/04/15 17:14:08;;;;;;;10.70;4.35;;;;;;;;;;5084656;28;20083;-86
2021/04/15 17:16:34;;;;;;;11.32;3.90;;;;;;;;;;5065513;28;20041;-83
2021/04/15 17:19:00;;;;;;;24.45;8.27;;;;;;;;;;5079248;28;20031;-82
2021/04/15 17:21:26;;;;;;;13.85;6.68;;;;;;;;;;5082514;28;20029;-82
2021/04/15 17:23:55;;;;;;;14.30;6.18;;;;;;;;;;5088943;28;20029;-82
2021/04/15 17:26:21;;;;;;;25.50;11.88;;;;;;;;;;5084505;28;20023;-81
2021/04/15 17:28:47;;;;;;;12.85;7.82;;;;;;;;;;5104519;28;20518;-82
2021/04/15 17:31:13;;;;;;;34.70;21.63;;;;;;;;;;5088870;28;20030;-82
2021/04/15 17:33:39;;;;;;;40.22;25.95;;;;;;;;;;5087031;28;20036;-82
2021/04/15 17:36:05;;;;;;;28.92;19.15;;;;;;;;;;5087025;28;20020;-82
2021/04/15 17:38:31;;;;;;;21.92;14.10;;;;;;;;;;5081811;28;20020;-81
2021/04/15 17:41:01;;;;;;;13.45;7.65;;;;;;;;;;5077734;28;20050;-81
2021/04/15 17:43:27;;;;;;;14.23;6.50;;;;;;;;;;5079716;28;20086;-81
2021/04/15 17:45:56;;;;;;;7.82;4.00;;;;;;;;;;5083092;28;20052;-81
2021/04/15 17:48:23;;;;;;;22.60;14.30;;;;;;;;;;5081110;28;20019;-82
2021/04/15 17:50:51;;;;;;;17.92;11.70;;;;;;;;;;5080998;28;20032;-81
2021/04/15 17:53:17;;;;;;;11.73;7.15;;;;;;;;;;5079978;28;20043;-81
2021/04/15 17:55:52;;;;;;;9.43;3.30;;;;;;;;;;5078515;28;20051;-80
2021/04/15 17:58:19;;;;;;;3.90;1.80;;;;;;;;;;5082667;28;20020;-80
2021/04/15 18:00:45;;;;;;;3.25;1.92;;;;;;;;;;5078624;28;20025;-81
2021/04/15 18:03:11;;;;;;;3.83;1.27;;;;;;;;;;5081048;28;20597;-80
2021/04/15 18:05:38;;;;;;;4.25;1.70;;;;;;;;;;5079816;28;20029;-82
2021/04/15 18:08:04;;;;;;;6.60;2.22;;;;;;;;;;5078119;28;20017;-81
2021/04/15 18:10:31;;;;;;;13.23;8.25;;;;;;;;;;5080591;28;20059;-81
2021/04/15 18:12:57;;;;;;;4.75;2.35;;;;;;;;;;5084066;28;20040;-81
2021/04/15 18:15:24;;;;;;;2.70;1.67;;;;;;;;;;5082690;28;20091;-82
2021/04/15 18:17:50;;;;;;;5.47;3.00;;;;;;;;;;5080438;28;20025;-81
2021/04/15 18:20:17;;;;;;;6.25;2.97;;;;;;;;;;5083701;28;20040;-81
2021/04/15 18:22:44;;;;;;;4.43;2.00;;;;;;;;;;5084964;28;20023;-81
2021/04/15 18:25:10;;;;;;;4.75;2.58;;;;;;;;;;5091062;28;20017;-80
2021/04/15 18:27:36;;;;;;;6.18;3.88;;;;;;;;;;5091371;28;20038;-81
2021/04/15 18:30:02;;;;;;;35.00;28.73;;;;;;;;;;5087924;28;20692;-81
2021/04/15 18:34:46;;;;;;;14.35;11.45;;;;;;;;;;5125871;27;20420;-82
2021/04/15 18:37:12;;;;;;;8.15;6.25;;;;;;;;;;5106022;28;20092;-81
2021/04/15 18:39:39;;;;;;;3.92;2.38;;;;;;;;;;5106281;28;20032;-82
2021/04/15 18:42:05;;;;;;;3.45;1.73;;;;;;;;;;5109263;28;20114;-83
2021/04/15 18:44:30;;;;;;;3.85;1.70;;;;;;;;;;5098827;28;20103;-82
2021/04/15 18:46:57;;;;;;;6.18;1.40;;;;;;;;;;5104610;28;20535;-83
2021/04/15 18:49:23;;;;;;;8.68;4.35;;;;;;;;;;5104555;28;20024;-82
2021/04/15 18:51:49;;;;;;;5.85;2.75;;;;;;;;;;5102436;28;20035;-81
2021/04/15 18:54:15;;;;;;;4.45;2.58;;;;;;;;;;5102356;28;20024;-81
2021/04/15 18:56:41;;;;;;;3.83;2.28;;;;;;;;;;5102800;28;20029;-83
2021/04/15 18:59:08;;;;;;;6.22;3.60;;;;;;;;;;5113705;28;20071;-82
2021/04/15 19:01:33;;;;;;;5.97;2.55;;;;;;;;;;5109296;28;20038;-82
2021/04/15 19:03:59;;;;;;;13.10;6.10;;;;;;;;;;5106767;28;20142;-82
2021/04/15 19:06:26;;;;;;;16.23;8.60;;;;;;;;;;5112815;28;20460;-81
2021/04/15 19:08:54;;;;;;;12.05;5.72;;;;;;;;;;5105524;28;20027;-82
2021/04/15 19:13:38;;;;;;;8.98;4.78;;;;;;;;;;5120141;27;20867;-82
2021/04/15 19:16:04;;;;;;;5.20;2.33;;;;;;;;;;5116038;28;20119;-82
2021/04/15 19:18:31;;;;;;;3.40;1.88;;;;;;;;;;5112188;28;20028;-82
2021/04/15 19:20:57;;;;;;;3.67;1.33;;;;;;;;;;5110671;28;20035;-81
2021/04/15 19:23:24;;;;;;;2.58;1.15;;;;;;;;;;5112007;28;20024;-80
2021/04/15 19:25:50;;;;;;;3.80;1.52;;;;;;;;;;5107508;28;20024;-81
2021/04/15 19:28:21;;;;;;;2.88;1.38;;;;;;;;;;5108192;28;20087;-80
2021/04/15 19:30:48;;;;;;;2.20;1.10;;;;;;;;;;5118690;28;20005;-81
2021/04/15 19:33:14;;;;;;;3.38;1.40;;;;;;;;;;5122125;27;20000;-80
2021/04/15 19:35:40;;;;;;;5.13;1.38;;;;;;;;;;5117884;28;20054;-80
2021/04/15 19:38:09;;;;;;;4.60;1.83;;;;;;;;;;5117090;28;20076;-80
2021/04/15 19:42:52;;;;;;;5.38;2.13;;;;;;;;;;5110205;28;20340;-81
2021/04/15 19:45:18;;;;;;;3.53;1.35;;;;;;;;;;5088478;28;20052;-81
2021/04/15 19:47:45;;;;;;;2.70;1.38;;;;;;;;;;5090730;28;20514;-82
2021/04/15 19:50:20;;;;;;;4.75;1.15;;;;;;;;;;5104706;28;20033;-82
2021/04/15 19:52:45;;;;;;;3.90;1.40;;;;;;;;;;5089980;28;20037;-81
2021/04/15 19:55:12;;;;;;;2.83;1.50;;;;;;;;;;5075632;28;20047;-81
2021/04/15 19:57:38;;;;;;;2.75;1.48;;;;;;;;;;5089569;28;20530;-80
2021/04/15 20:00:09;;;;;;;3.88;1.20;;;;;;;;;;5086321;28;20008;-81
2021/04/15 20:02:35;;;;;;;2.95;1.08;;;;;;;;;;5072191;28;20033;-81
2021/04/15 20:05:01;;;;;;;4.40;1.13;;;;;;;;;;5070240;28;20402;-81
2021/04/15 20:07:26;;;;;;;2.10;0.95;;;;;;;;;;5068014;28;20092;-81
2021/04/15 20:09:52;;;;;;;2.40;1.00;;;;;;;;;;5082800;28;20024;-81
2021/04/15 20:12:18;;;;;;;3.40;1.30;;;;;;;;;;5083631;28;20036;-80
2021/04/15 20:17:02;;;;;;;5.00;1.58;;;;;;;;;;5098193;27;20373;-81
2021/04/15 20:19:28;;;;;;;4.82;1.50;;;;;;;;;;5083834;28;20033;-81
2021/04/15 20:24:12;;;;;;;6.63;2.15;;;;;;;;;;5120992;27;20347;-81
2021/04/15 20:26:39;;;;;;;6.38;1.30;;;;;;;;;;5125331;28;20062;-82
2021/04/15 20:29:05;;;;;;;4.45;1.75;;;;;;;;;;5123508;28;20027;-82
2021/04/15 20:31:31;;;;;;;3.13;1.60;;;;;;;;;;5112913;28;20084;-82